createdAt,value
2018-04-11T00:00:23.478Z,73.11
2018-04-11T00:01:23.479Z,72.92
2018-04-11T00:02:23.479Z,73.02
2018-04-11T00:03:23.480Z,72.86
2018-04-11T00:04:23.480Z,72.77
2018-04-11T00:06:23.480Z,73.50
2018-04-11T00:07:23.484Z,73.44
2018-04-11T00:08:23.482Z,73.59
2018-04-11T00:09:23.685Z,74.16
2018-04-11T00:10:23.483Z,73.88
2018-04-11T00:11:23.484Z,74.07
2018-04-11T00:12:23.487Z,73.97
2018-04-11T00:13:23.484Z,74.45
2018-04-11T00:14:23.485Z,74.74
2018-04-11T00:15:23.487Z,75.70
2018-04-11T00:16:23.488Z,75.22
2018-04-11T00:17:23.491Z,75.79
2018-04-11T00:18:23.489Z,75.60
2018-04-11T00:19:23.489Z,75.41
2018-04-11T00:22:49.494Z,75.70
2018-04-11T00:23:49.194Z,75.79
2018-04-11T00:30:58.170Z,76.14
2018-04-11T00:36:07.146Z,76.46
2018-04-11T00:37:07.165Z,76.75
2018-04-11T00:38:07.145Z,76.56
2018-04-11T00:39:07.145Z,76.46
2018-04-11T00:40:07.145Z,76.75
2018-04-11T00:41:07.145Z,76.46
2018-04-11T00:42:07.145Z,77.04
2018-04-11T00:43:07.146Z,76.94
2018-04-11T00:44:07.145Z,76.65
2018-04-11T00:45:07.149Z,76.75
2018-04-11T00:47:07.149Z,77.61
2018-04-11T00:53:11.228Z,78.86
2018-04-11T00:54:11.237Z,78.53
2018-04-11T00:55:11.228Z,78.72
2018-04-11T00:56:11.229Z,78.63
2018-04-11T00:57:11.229Z,79.39
2018-04-11T00:58:11.226Z,79.10
2018-04-11T00:59:11.227Z,79.10
2018-04-11T01:00:11.226Z,79.39
2018-04-11T01:01:11.225Z,79.68
2018-04-11T01:02:11.225Z,79.39
2018-04-11T01:03:11.226Z,79.68
2018-04-11T01:04:11.227Z,79.68
2018-04-11T01:05:11.231Z,79.87
2018-04-11T01:06:11.231Z,79.68
2018-04-11T01:07:11.231Z,79.96
2018-04-11T01:08:11.232Z,80.63
2018-04-11T01:09:11.231Z,80.54
2018-04-11T01:10:11.231Z,80.35
2018-04-11T01:11:11.231Z,79.96
2018-04-11T01:12:11.235Z,80.69
2018-04-11T01:13:11.234Z,80.54
2018-04-11T01:14:11.219Z,80.88
2018-04-11T01:15:11.218Z,80.98
2018-04-11T01:16:11.219Z,80.98
2018-04-11T01:17:11.216Z,80.98
2018-04-11T01:18:11.216Z,81.16
2018-04-11T01:19:11.217Z,80.79
2018-04-11T01:20:11.216Z,80.40
2018-04-11T01:22:11.219Z,80.50
2018-04-11T01:23:11.214Z,80.59
2018-04-11T01:24:11.214Z,80.30
2018-04-11T01:25:11.211Z,80.98
2018-04-11T01:26:11.212Z,80.88
2018-04-11T01:27:11.213Z,81.26
2018-04-11T01:28:11.211Z,81.26
2018-04-11T01:29:11.234Z,80.50
2018-04-11T01:30:11.209Z,80.88
2018-04-11T01:31:11.209Z,81.26
2018-04-11T01:32:11.212Z,81.45
2018-04-11T01:33:11.206Z,80.98
2018-04-11T01:34:11.207Z,81.26
2018-04-11T01:35:11.204Z,80.84
2018-04-11T01:36:11.203Z,81.07
2018-04-11T01:37:11.202Z,80.88
2018-04-11T01:38:11.201Z,80.69
2018-04-11T01:39:11.200Z,80.88
2018-04-11T01:40:11.199Z,81.07
2018-04-11T01:41:11.202Z,81.65
2018-04-11T01:42:11.202Z,81.51
2018-04-11T01:43:11.207Z,81.41
2018-04-11T01:44:11.206Z,81.32
2018-04-11T01:45:11.207Z,81.89
2018-04-11T01:46:11.192Z,81.99
2018-04-11T01:47:11.206Z,81.51
2018-04-11T01:48:11.190Z,81.60
2018-04-11T01:49:11.189Z,81.51
2018-04-11T01:50:11.187Z,81.51
2018-04-11T01:51:11.186Z,81.60
2018-04-11T01:52:11.189Z,81.79
2018-04-11T01:53:11.187Z,82.28
2018-04-11T01:54:11.199Z,82.18
2018-04-11T01:55:11.181Z,82.46
2018-04-11T01:56:11.181Z,82.37
2018-04-11T01:57:11.178Z,82.28
2018-04-11T01:58:11.177Z,82.37
2018-04-11T01:59:11.176Z,82.18
2018-04-11T02:00:11.175Z,82.28
2018-04-11T02:01:11.173Z,82.28
2018-04-11T02:02:11.172Z,82.56
2018-04-11T02:03:11.169Z,82.71
2018-04-11T02:04:11.169Z,82.81
2018-04-11T02:05:11.166Z,82.42
2018-04-11T02:06:11.165Z,82.90
2018-04-11T02:07:11.165Z,82.71
2018-04-11T02:08:11.162Z,82.90
2018-04-11T02:09:11.163Z,82.23
2018-04-11T02:10:11.159Z,82.71
2018-04-11T02:11:11.157Z,82.42
2018-04-11T02:12:11.156Z,82.32
2018-04-11T02:13:11.153Z,82.32
2018-04-11T02:14:11.152Z,82.61
2018-04-11T02:15:11.150Z,82.61
2018-04-11T02:16:11.148Z,83.28
2018-04-11T02:17:11.146Z,83.09
2018-04-11T02:18:11.144Z,83.57
2018-04-11T02:19:11.143Z,83.38
2018-04-11T02:20:11.141Z,83.47
2018-04-11T02:21:11.139Z,83.38
2018-04-11T02:22:11.137Z,83.76
2018-04-11T02:23:11.134Z,83.76
2018-04-11T02:24:11.133Z,83.57
2018-04-11T02:25:11.131Z,83.67
2018-04-11T02:26:11.128Z,83.28
2018-04-11T02:27:11.126Z,83.53
2018-04-11T02:28:11.126Z,84.39
2018-04-11T02:29:11.122Z,83.47
2018-04-11T02:30:11.121Z,84.23
2018-04-11T02:31:11.120Z,83.91
2018-04-11T02:32:11.120Z,84.00
2018-04-11T02:33:11.115Z,84.00
2018-04-11T02:34:11.119Z,84.00
2018-04-11T02:35:11.112Z,84.00
2018-04-11T02:36:11.110Z,84.29
2018-04-11T02:37:11.112Z,84.20
2018-04-11T02:38:11.104Z,84.39
2018-04-11T02:39:11.102Z,84.00
2018-04-11T02:40:11.099Z,84.10
2018-04-11T02:41:11.096Z,84.20
2018-04-11T02:42:11.095Z,84.39
2018-04-11T02:43:11.094Z,84.58
2018-04-11T02:44:11.091Z,84.67
2018-04-11T02:45:11.089Z,84.39
2018-04-11T02:46:11.288Z,84.48
2018-04-11T02:47:11.084Z,84.00
2018-04-11T02:48:11.081Z,84.58
2018-04-11T02:49:11.078Z,85.25
2018-04-11T02:50:11.075Z,85.25
2018-04-11T02:51:11.074Z,85.25
2018-04-11T02:52:11.071Z,84.77
2018-04-11T02:53:11.067Z,85.05
2018-04-11T02:54:11.065Z,85.05
2018-04-11T02:55:11.063Z,85.49
2018-04-11T02:56:11.060Z,85.49
2018-04-11T02:57:11.058Z,85.58
2018-04-11T02:58:11.057Z,85.39
2018-04-11T02:59:11.053Z,85.39
2018-04-11T03:01:11.048Z,85.39
2018-04-11T03:02:11.046Z,85.58
2018-04-11T03:03:11.044Z,84.82
2018-04-11T03:04:11.042Z,85.11
2018-04-11T03:05:11.038Z,84.92
2018-04-11T03:06:11.035Z,85.39
2018-04-11T03:07:11.035Z,85.30
2018-04-11T03:08:11.033Z,85.68
2018-04-11T03:09:11.028Z,85.49
2018-04-11T03:10:11.027Z,85.68
2018-04-11T03:11:11.023Z,85.39
2018-04-11T03:12:11.020Z,85.58
2018-04-11T03:13:11.018Z,85.30
2018-04-11T03:14:11.015Z,85.30
2018-04-11T03:15:11.013Z,85.87
2018-04-11T03:16:11.011Z,85.39
2018-04-11T03:17:11.007Z,85.45
2018-04-11T03:18:11.005Z,85.54
2018-04-11T03:19:11.006Z,85.45
2018-04-11T03:20:11.002Z,85.16
2018-04-11T03:21:10.995Z,85.64
2018-04-11T03:22:10.994Z,86.02
2018-04-11T03:23:10.991Z,85.83
2018-04-11T03:24:10.989Z,86.16
2018-04-11T03:25:10.985Z,86.02
2018-04-11T03:27:10.980Z,85.83
2018-04-11T03:28:10.976Z,85.73
2018-04-11T03:29:10.973Z,85.64
2018-04-11T03:30:10.969Z,86.11
2018-04-11T03:31:10.977Z,85.93
2018-04-11T03:32:10.965Z,85.83
2018-04-11T03:33:10.961Z,85.73
2018-04-11T03:34:10.958Z,86.30
2018-04-11T03:35:10.956Z,85.83
2018-04-11T03:36:10.952Z,86.02
2018-04-11T03:37:10.949Z,85.73
2018-04-11T03:38:10.945Z,85.83
2018-04-11T03:39:10.944Z,86.11
2018-04-11T03:40:10.940Z,85.54
2018-04-11T03:41:10.935Z,85.64
2018-04-11T03:42:10.934Z,85.64
2018-04-11T03:43:10.931Z,85.93
2018-04-11T03:44:10.932Z,85.45
2018-04-11T03:45:10.924Z,86.11
2018-04-11T03:46:10.921Z,85.35
2018-04-11T03:47:10.918Z,85.83
2018-04-11T03:48:10.915Z,85.83
2018-04-11T03:49:10.911Z,85.64
2018-04-11T03:50:10.909Z,85.41
2018-04-11T03:51:10.908Z,85.35
2018-04-11T03:52:10.903Z,85.41
2018-04-11T03:53:10.899Z,85.25
2018-04-11T03:54:10.899Z,85.78
2018-04-11T03:55:10.890Z,85.31
2018-04-11T03:56:10.888Z,86.16
2018-04-11T03:57:10.885Z,85.78
2018-04-11T03:58:10.881Z,85.78
2018-04-11T03:59:10.879Z,85.78
2018-04-11T04:00:10.875Z,85.69
2018-04-11T04:01:10.872Z,85.78
2018-04-11T04:02:10.866Z,85.97
2018-04-11T04:03:10.864Z,86.36
2018-04-11T04:04:10.860Z,86.36
2018-04-11T04:05:10.858Z,86.45
2018-04-11T04:06:10.855Z,85.78
2018-04-11T04:07:10.848Z,86.26
2018-04-11T04:08:10.847Z,86.55
2018-04-11T04:09:10.842Z,86.74
2018-04-11T04:10:10.838Z,86.55
2018-04-11T04:11:10.836Z,86.55
2018-04-11T04:12:10.832Z,86.36
2018-04-11T04:13:10.827Z,86.83
2018-04-11T04:14:10.825Z,86.74
2018-04-11T04:15:10.821Z,87.12
2018-04-11T04:16:10.817Z,87.12
2018-04-11T04:17:10.814Z,86.93
2018-04-11T04:18:10.810Z,86.55
2018-04-11T04:19:10.806Z,86.36
2018-04-11T04:20:10.803Z,86.36
2018-04-11T04:21:10.800Z,87.02
2018-04-11T04:22:10.795Z,87.02
2018-04-11T04:23:10.792Z,86.83
2018-04-11T04:24:10.789Z,87.02
2018-04-11T04:25:10.785Z,87.02
2018-04-11T04:26:10.783Z,87.02
2018-04-11T04:27:10.777Z,87.12
2018-04-11T04:28:10.775Z,86.36
2018-04-11T04:29:10.770Z,86.65
2018-04-11T04:30:10.766Z,86.93
2018-04-11T04:31:10.763Z,86.83
2018-04-11T04:32:10.761Z,86.36
2018-04-11T04:33:10.755Z,87.12
2018-04-11T04:34:10.751Z,86.36
2018-04-11T04:35:10.749Z,86.36
2018-04-11T04:36:10.751Z,86.45
2018-04-11T04:37:10.764Z,86.22
2018-04-11T04:38:10.735Z,86.36
2018-04-11T04:39:10.733Z,86.41
2018-04-11T04:40:10.730Z,86.51
2018-04-11T04:41:10.726Z,86.74
2018-04-11T04:42:10.722Z,86.36
2018-04-11T04:43:10.718Z,86.26
2018-04-11T04:44:10.715Z,86.36
2018-04-11T04:45:10.711Z,86.36
2018-04-11T04:46:10.709Z,86.55
2018-04-11T04:47:10.953Z,86.22
2018-04-11T04:48:10.701Z,86.41
2018-04-11T04:49:10.695Z,86.98
2018-04-11T04:50:10.693Z,86.88
2018-04-11T04:51:10.694Z,87.27
2018-04-11T04:52:10.686Z,87.46
2018-04-11T04:53:10.782Z,87.07
2018-04-11T04:54:10.678Z,87.27
2018-04-11T04:55:10.673Z,87.17
2018-04-11T04:56:10.671Z,86.88
2018-04-11T04:57:10.665Z,87.17
2018-04-11T04:58:10.662Z,86.88
2018-04-11T04:59:10.660Z,87.17
2018-04-11T05:00:10.659Z,87.46
2018-04-11T05:01:10.652Z,87.17
2018-04-11T05:02:10.648Z,86.88
2018-04-11T05:03:10.645Z,87.27
2018-04-11T05:04:10.642Z,87.55
2018-04-11T05:05:10.638Z,86.88
2018-04-11T05:06:10.634Z,86.98
2018-04-11T05:07:10.629Z,87.36
2018-04-11T05:08:10.627Z,87.27
2018-04-11T05:09:10.623Z,87.36
2018-04-11T05:10:10.618Z,86.98
2018-04-11T05:11:10.615Z,86.88
2018-04-11T05:12:10.612Z,86.98
2018-04-11T05:13:10.607Z,86.41
2018-04-11T05:14:10.625Z,86.69
2018-04-11T05:15:10.603Z,86.88
2018-04-11T05:16:10.597Z,87.27
2018-04-11T05:17:10.593Z,87.36
2018-04-11T05:18:10.588Z,87.36
2018-04-11T05:19:10.584Z,87.27
2018-04-11T05:20:10.580Z,87.27
2018-04-11T05:21:10.576Z,87.46
2018-04-11T05:22:10.570Z,86.98
2018-04-11T05:23:10.568Z,87.07
2018-04-11T05:24:10.564Z,86.98
2018-04-11T05:25:10.560Z,86.69
2018-04-11T05:26:10.556Z,86.41
2018-04-11T05:27:10.587Z,86.32
2018-04-11T05:28:10.550Z,86.32
2018-04-11T05:29:10.543Z,86.12
2018-04-11T05:30:10.540Z,86.51
2018-04-11T05:31:10.536Z,86.60
2018-04-11T05:32:10.532Z,86.41
2018-04-11T05:33:10.528Z,86.32
2018-04-11T05:34:10.523Z,86.51
2018-04-11T05:35:10.521Z,86.41
2018-04-11T05:36:10.516Z,86.60
2018-04-11T05:37:10.512Z,86.41
2018-04-11T05:38:10.508Z,85.84
2018-04-11T05:39:10.504Z,85.84
2018-04-11T05:40:10.503Z,85.17
2018-04-11T05:41:10.504Z,84.74
2018-04-11T05:42:10.508Z,84.92
2018-04-11T05:43:10.510Z,84.16
2018-04-11T05:44:10.483Z,83.12
2018-04-11T05:45:10.479Z,83.69
2018-04-11T05:46:10.478Z,83.69
2018-04-11T05:47:10.623Z,83.40
2018-04-11T05:48:10.471Z,82.83
2018-04-11T05:49:10.465Z,83.02
2018-04-11T05:50:10.462Z,83.59
2018-04-11T05:51:10.461Z,84.26
2018-04-11T05:52:10.454Z,84.64
2018-04-11T05:53:10.706Z,85.12
2018-04-11T05:55:10.460Z,84.07
2018-04-11T05:56:10.457Z,84.16
2018-04-11T05:57:10.436Z,84.07
2018-04-11T05:58:10.433Z,83.88
2018-04-11T05:59:10.682Z,84.36
2018-04-11T06:00:10.427Z,84.83
2018-04-11T06:01:10.425Z,84.74
2018-04-11T06:02:10.424Z,84.45
2018-04-11T06:03:10.416Z,84.83
2018-04-11T06:04:10.411Z,84.16
2018-04-11T06:05:10.660Z,83.59
2018-04-11T06:06:10.405Z,83.78
2018-04-11T06:07:10.401Z,83.21
2018-04-11T06:08:10.399Z,82.64
2018-04-11T06:09:10.398Z,82.07
2018-04-11T06:10:10.391Z,82.73
2018-04-11T06:11:10.390Z,83.69
2018-04-11T06:12:10.387Z,83.40
2018-04-11T06:13:10.382Z,83.40
2018-04-11T06:14:10.379Z,83.31
2018-04-11T06:15:10.375Z,83.40
2018-04-11T06:16:10.373Z,82.73
2018-04-11T06:17:43.578Z,82.40
2018-04-11T06:18:10.366Z,82.78
2018-04-11T06:19:10.385Z,82.59
2018-04-11T06:20:10.363Z,82.11
2018-04-11T06:21:10.359Z,82.11
2018-04-11T06:22:10.354Z,81.92
2018-04-11T06:23:10.500Z,81.48
2018-04-11T06:24:10.347Z,80.24
2018-04-11T06:25:10.344Z,79.57
2018-04-11T06:26:10.341Z,79.38
2018-04-11T06:27:10.337Z,78.72
2018-04-11T06:28:10.352Z,79.00
2018-04-11T06:29:10.332Z,78.14
2018-04-11T06:30:10.330Z,77.61
2018-04-11T06:31:10.328Z,77.70
2018-04-11T06:32:10.325Z,76.84
2018-04-11T06:33:10.321Z,75.64
2018-04-11T06:34:10.320Z,75.54
2018-04-11T06:35:10.393Z,74.69
2018-04-11T06:36:10.317Z,73.58
2018-04-11T06:37:10.314Z,72.56
2018-04-11T06:38:10.313Z,71.22
2018-04-11T06:39:10.314Z,71.03
2018-04-11T06:40:10.310Z,69.92
2018-04-11T06:41:10.310Z,70.17
2018-04-11T06:44:36.003Z,71.28
2018-04-11T07:19:45.438Z,62.93
2018-04-11T08:11:39.429Z,59.16
2018-04-11T08:12:39.451Z,59.45
2018-04-11T08:13:39.441Z,59.29
